< Typhoon 196819 1968 Season Typhoon 196821 >
Typhoon 196820 (HESTER)
General InformationTrack Information on Google Maps || Disaster Info.ResourceGoogle EarthGE AnimationAtom FeedGeoJSON
Detalied Best Track (Time Zone = UTC)
Year Month Day Hour Lat. Long. Pressure (hPa) Wind (kt) Class Image Chart
1968 10 15 18 13.8 117.9 1004 0 2 -- Chart
1968 10 16 00 13.7 117.4 1006 0 2 -- Chart
1968 10 16 06 13.6 117.0 1004 0 2 -- Chart
1968 10 16 12 13.4 116.4 1006 0 2 -- Chart
1968 10 16 18 13.3 115.8 1004 0 2 -- Chart
1968 10 17 00 13.2 115.2 1004 0 2 -- Chart
1968 10 17 06 12.9 114.6 1002 0 2 -- Chart
1968 10 17 12 12.6 113.9 1002 0 2 -- Chart
1968 10 17 18 12.4 113.4 1002 0 2 -- Chart
1968 10 18 00 12.1 112.9 1000 0 9 -- Chart
1968 10 18 06 11.8 112.6 998 0 9 -- Chart
1968 10 18 12 11.6 112.1 998 0 9 -- Chart
1968 10 18 18 11.4 111.5 998 0 9 -- Chart
1968 10 19 00 11.2 110.8 995 0 9 -- Chart
1968 10 19 06 11.0 110.3 995 0 9 -- Chart
1968 10 19 12 11.0 109.4 995 0 9 -- Chart
1968 10 19 18 11.0 108.7 998 0 9 -- Chart
1968 10 20 00 11.0 107.8 1000 0 9 -- Chart
1968 10 20 06 11.0 106.8 1002 0 2 -- Chart
1968 10 20 12 11.0 105.4 1006 0 2 -- Chart
1968 10 20 18 11.0 103.7 1006 0 2 -- Chart
1968 10 21 00 11.0 102.5 1008 0 2 -- Chart
Japan Meteorological Agency Best Track Data | Correction Date : 1989-06-01
< Typhoon 196819 1968 Season Typhoon 196821 >

Help